sensor_id;sensor_type;location;lat;lon;timestamp;P1;durP1;ratioP1;P2;durP2;ratioP2
51612;SDS011;37694;51.748;14.326;2022-07-23T00:01:30;3.00;;;2.70;;
51612;SDS011;37694;51.748;14.326;2022-07-23T00:03:57;4.53;;;2.60;;
51612;SDS011;37694;51.748;14.326;2022-07-23T00:06:23;4.63;;;2.90;;
51612;SDS011;37694;51.748;14.326;2022-07-23T00:08:49;4.25;;;2.35;;
51612;SDS011;37694;51.748;14.326;2022-07-23T00:11:15;2.95;;;2.40;;
51612;SDS011;37694;51.748;14.326;2022-07-23T00:13:41;4.43;;;2.90;;
51612;SDS011;37694;51.748;14.326;2022-07-23T00:16:06;2.60;;;2.40;;
51612;SDS011;37694;51.748;14.326;2022-07-23T00:18:32;2.75;;;2.55;;
51612;SDS011;37694;51.748;14.326;2022-07-23T00:20:58;2.95;;;2.55;;
51612;SDS011;37694;51.748;14.326;2022-07-23T00:23:24;2.85;;;2.00;;
51612;SDS011;37694;51.748;14.326;2022-07-23T00:25:50;3.38;;;2.35;;
51612;SDS011;37694;51.748;14.326;2022-07-23T00:28:16;3.85;;;2.78;;
51612;SDS011;37694;51.748;14.326;2022-07-23T00:30:43;2.75;;;2.25;;
51612;SDS011;37694;51.748;14.326;2022-07-23T00:33:09;2.92;;;2.30;;
51612;SDS011;37694;51.748;14.326;2022-07-23T00:35:37;4.13;;;2.13;;
51612;SDS011;37694;51.748;14.326;2022-07-23T00:38:05;8.60;;;2.50;;
51612;SDS011;37694;51.748;14.326;2022-07-23T00:40:32;4.75;;;2.53;;
51612;SDS011;37694;51.748;14.326;2022-07-23T00:42:58;8.88;;;2.35;;
51612;SDS011;37694;51.748;14.326;2022-07-23T00:45:24;3.60;;;1.88;;
51612;SDS011;37694;51.748;14.326;2022-07-23T00:47:50;3.53;;;2.28;;
51612;SDS011;37694;51.748;14.326;2022-07-23T00:50:16;2.47;;;2.20;;
51612;SDS011;37694;51.748;14.326;2022-07-23T00:52:42;4.47;;;2.55;;
51612;SDS011;37694;51.748;14.326;2022-07-23T00:55:08;5.32;;;2.40;;
51612;SDS011;37694;51.748;14.326;2022-07-23T00:57:35;7.18;;;2.08;;
51612;SDS011;37694;51.748;14.326;2022-07-23T01:00:02;4.78;;;2.50;;
51612;SDS011;37694;51.748;14.326;2022-07-23T01:02:29;2.95;;;2.00;;
51612;SDS011;37694;51.748;14.326;2022-07-23T01:04:55;6.65;;;2.08;;
51612;SDS011;37694;51.748;14.326;2022-07-23T01:07:20;6.78;;;2.45;;
51612;SDS011;37694;51.748;14.326;2022-07-23T01:09:47;3.22;;;1.92;;
51612;SDS011;37694;51.748;14.326;2022-07-23T01:12:13;3.42;;;2.10;;
51612;SDS011;37694;51.748;14.326;2022-07-23T01:14:39;2.10;;;2.00;;
51612;SDS011;37694;51.748;14.326;2022-07-23T01:17:05;2.13;;;1.92;;
51612;SDS011;37694;51.748;14.326;2022-07-23T01:19:30;2.35;;;2.10;;
51612;SDS011;37694;51.748;14.326;2022-07-23T01:21:56;3.60;;;1.73;;
51612;SDS011;37694;51.748;14.326;2022-07-23T01:24:23;2.22;;;2.00;;
51612;SDS011;37694;51.748;14.326;2022-07-23T01:26:49;5.63;;;1.83;;
51612;SDS011;37694;51.748;14.326;2022-07-23T01:29:15;3.08;;;2.05;;
51612;SDS011;37694;51.748;14.326;2022-07-23T01:31:42;2.40;;;1.90;;
51612;SDS011;37694;51.748;14.326;2022-07-23T01:34:08;4.95;;;2.13;;
51612;SDS011;37694;51.748;14.326;2022-07-23T01:36:35;3.20;;;2.15;;
51612;SDS011;37694;51.748;14.326;2022-07-23T01:39:02;7.10;;;1.80;;
51612;SDS011;37694;51.748;14.326;2022-07-23T01:41:30;1.67;;;1.58;;
51612;SDS011;37694;51.748;14.326;2022-07-23T01:43:55;2.50;;;2.25;;
51612;SDS011;37694;51.748;14.326;2022-07-23T01:46:21;1.70;;;1.60;;
51612;SDS011;37694;51.748;14.326;2022-07-23T01:48:47;6.93;;;1.90;;
51612;SDS011;37694;51.748;14.326;2022-07-23T01:51:14;5.20;;;2.03;;
51612;SDS011;37694;51.748;14.326;2022-07-23T01:53:39;2.00;;;1.90;;
51612;SDS011;37694;51.748;14.326;2022-07-23T01:56:05;4.25;;;2.15;;
51612;SDS011;37694;51.748;14.326;2022-07-23T01:58:31;8.15;;;1.50;;
51612;SDS011;37694;51.748;14.326;2022-07-23T02:00:57;5.85;;;1.73;;
51612;SDS011;37694;51.748;14.326;2022-07-23T02:03:23;6.43;;;2.53;;
51612;SDS011;37694;51.748;14.326;2022-07-23T02:05:49;3.97;;;1.70;;
51612;SDS011;37694;51.748;14.326;2022-07-23T02:08:15;8.32;;;1.60;;
51612;SDS011;37694;51.748;14.326;2022-07-23T02:10:41;9.15;;;2.33;;
51612;SDS011;37694;51.748;14.326;2022-07-23T02:13:07;2.72;;;1.75;;
51612;SDS011;37694;51.748;14.326;2022-07-23T02:15:32;2.20;;;1.88;;
51612;SDS011;37694;51.748;14.326;2022-07-23T02:17:58;6.70;;;2.03;;
51612;SDS011;37694;51.748;14.326;2022-07-23T02:20:24;8.52;;;2.10;;
51612;SDS011;37694;51.748;14.326;2022-07-23T02:22:50;6.53;;;1.77;;
51612;SDS011;37694;51.748;14.326;2022-07-23T02:25:16;3.80;;;1.67;;
51612;SDS011;37694;51.748;14.326;2022-07-23T02:27:42;3.90;;;1.80;;
51612;SDS011;37694;51.748;14.326;2022-07-23T02:30:08;3.03;;;1.70;;
51612;SDS011;37694;51.748;14.326;2022-07-23T02:32:34;2.10;;;1.92;;
51612;SDS011;37694;51.748;14.326;2022-07-23T02:35:00;5.57;;;2.13;;
51612;SDS011;37694;51.748;14.326;2022-07-23T02:37:26;7.88;;;1.88;;
51612;SDS011;37694;51.748;14.326;2022-07-23T02:39:52;4.10;;;1.52;;
51612;SDS011;37694;51.748;14.326;2022-07-23T02:42:17;4.90;;;1.65;;
51612;SDS011;37694;51.748;14.326;2022-07-23T02:44:43;2.03;;;1.83;;
51612;SDS011;37694;51.748;14.326;2022-07-23T02:47:09;5.93;;;1.77;;
51612;SDS011;37694;51.748;14.326;2022-07-23T02:49:34;3.78;;;1.55;;
51612;SDS011;37694;51.748;14.326;2022-07-23T02:52:00;3.47;;;1.95;;
51612;SDS011;37694;51.748;14.326;2022-07-23T02:54:25;1.98;;;1.55;;
51612;SDS011;37694;51.748;14.326;2022-07-23T02:56:51;1.95;;;1.60;;
51612;SDS011;37694;51.748;14.326;2022-07-23T02:59:17;4.38;;;1.70;;
51612;SDS011;37694;51.748;14.326;2022-07-23T03:01:43;2.03;;;1.60;;
51612;SDS011;37694;51.748;14.326;2022-07-23T03:04:09;1.60;;;1.50;;
51612;SDS011;37694;51.748;14.326;2022-07-23T03:06:34;2.75;;;2.05;;
51612;SDS011;37694;51.748;14.326;2022-07-23T03:09:00;1.63;;;1.48;;
51612;SDS011;37694;51.748;14.326;2022-07-23T03:11:25;1.50;;;1.40;;
51612;SDS011;37694;51.748;14.326;2022-07-23T03:13:51;3.22;;;1.60;;
51612;SDS011;37694;51.748;14.326;2022-07-23T03:16:17;4.88;;;1.45;;
51612;SDS011;37694;51.748;14.326;2022-07-23T03:18:42;3.53;;;1.52;;
51612;SDS011;37694;51.748;14.326;2022-07-23T03:21:08;2.00;;;1.45;;
51612;SDS011;37694;51.748;14.326;2022-07-23T03:23:34;1.30;;;1.20;;
51612;SDS011;37694;51.748;14.326;2022-07-23T03:25:59;7.80;;;1.65;;
51612;SDS011;37694;51.748;14.326;2022-07-23T03:28:25;2.95;;;1.30;;
51612;SDS011;37694;51.748;14.326;2022-07-23T03:30:50;1.48;;;1.35;;
51612;SDS011;37694;51.748;14.326;2022-07-23T03:33:17;1.50;;;1.40;;
51612;SDS011;37694;51.748;14.326;2022-07-23T03:35:44;1.52;;;1.42;;
51612;SDS011;37694;51.748;14.326;2022-07-23T03:38:10;2.80;;;1.35;;
51612;SDS011;37694;51.748;14.326;2022-07-23T03:40:36;4.07;;;1.40;;
51612;SDS011;37694;51.748;14.326;2022-07-23T03:43:02;2.42;;;1.40;;
51612;SDS011;37694;51.748;14.326;2022-07-23T03:45:28;1.85;;;1.70;;
51612;SDS011;37694;51.748;14.326;2022-07-23T03:47:53;2.17;;;1.40;;
51612;SDS011;37694;51.748;14.326;2022-07-23T03:50:19;6.45;;;1.90;;
51612;SDS011;37694;51.748;14.326;2022-07-23T03:52:45;5.03;;;1.23;;
51612;SDS011;37694;51.748;14.326;2022-07-23T03:55:10;2.38;;;1.50;;
51612;SDS011;37694;51.748;14.326;2022-07-23T03:57:36;2.50;;;1.65;;
51612;SDS011;37694;51.748;14.326;2022-07-23T04:00:03;2.55;;;1.65;;
51612;SDS011;37694;51.748;14.326;2022-07-23T04:02:30;2.10;;;1.52;;
51612;SDS011;37694;51.748;14.326;2022-07-23T04:04:56;1.63;;;1.40;;
51612;SDS011;37694;51.748;14.326;2022-07-23T04:07:21;1.40;;;1.30;;
51612;SDS011;37694;51.748;14.326;2022-07-23T04:09:47;3.90;;;1.48;;
51612;SDS011;37694;51.748;14.326;2022-07-23T04:12:13;1.45;;;1.25;;
51612;SDS011;37694;51.748;14.326;2022-07-23T04:14:39;2.33;;;1.30;;
51612;SDS011;37694;51.748;14.326;2022-07-23T04:17:05;2.75;;;1.52;;
51612;SDS011;37694;51.748;14.326;2022-07-23T04:19:30;6.55;;;1.38;;
51612;SDS011;37694;51.748;14.326;2022-07-23T04:21:56;3.67;;;1.83;;
51612;SDS011;37694;51.748;14.326;2022-07-23T04:24:22;1.70;;;1.60;;
51612;SDS011;37694;51.748;14.326;2022-07-23T04:26:48;1.42;;;1.30;;
51612;SDS011;37694;51.748;14.326;2022-07-23T04:29:14;1.20;;;1.10;;
51612;SDS011;37694;51.748;14.326;2022-07-23T04:31:39;1.23;;;1.20;;
51612;SDS011;37694;51.748;14.326;2022-07-23T04:34:05;1.50;;;1.40;;
51612;SDS011;37694;51.748;14.326;2022-07-23T04:36:31;2.55;;;1.70;;
51612;SDS011;37694;51.748;14.326;2022-07-23T04:38:56;1.45;;;1.35;;
51612;SDS011;37694;51.748;14.326;2022-07-23T04:41:22;3.13;;;1.40;;
51612;SDS011;37694;51.748;14.326;2022-07-23T04:43:48;1.40;;;1.30;;
51612;SDS011;37694;51.748;14.326;2022-07-23T04:46:13;1.50;;;1.40;;
51612;SDS011;37694;51.748;14.326;2022-07-23T04:48:39;4.75;;;1.30;;
51612;SDS011;37694;51.748;14.326;2022-07-23T04:51:05;1.58;;;1.48;;
51612;SDS011;37694;51.748;14.326;2022-07-23T04:53:31;2.08;;;1.35;;
51612;SDS011;37694;51.748;14.326;2022-07-23T04:55:57;3.88;;;1.48;;
51612;SDS011;37694;51.748;14.326;2022-07-23T04:58:22;1.40;;;1.30;;
51612;SDS011;37694;51.748;14.326;2022-07-23T05:00:48;1.80;;;1.40;;
51612;SDS011;37694;51.748;14.326;2022-07-23T05:03:14;4.55;;;1.25;;
51612;SDS011;37694;51.748;14.326;2022-07-23T05:05:40;8.82;;;1.65;;
51612;SDS011;37694;51.748;14.326;2022-07-23T05:08:05;4.40;;;1.52;;
51612;SDS011;37694;51.748;14.326;2022-07-23T05:10:31;2.97;;;1.27;;
51612;SDS011;37694;51.748;14.326;2022-07-23T05:12:56;4.25;;;1.75;;
51612;SDS011;37694;51.748;14.326;2022-07-23T05:15:22;2.65;;;1.20;;
51612;SDS011;37694;51.748;14.326;2022-07-23T05:17:48;5.65;;;1.50;;
51612;SDS011;37694;51.748;14.326;2022-07-23T05:20:14;4.18;;;1.38;;
51612;SDS011;37694;51.748;14.326;2022-07-23T05:22:40;8.35;;;1.65;;
51612;SDS011;37694;51.748;14.326;2022-07-23T05:25:06;3.33;;;1.20;;
51612;SDS011;37694;51.748;14.326;2022-07-23T05:27:32;2.13;;;1.38;;
51612;SDS011;37694;51.748;14.326;2022-07-23T05:29:57;2.55;;;1.60;;
51612;SDS011;37694;51.748;14.326;2022-07-23T05:32:23;11.07;;;1.30;;
51612;SDS011;37694;51.748;14.326;2022-07-23T05:34:49;12.10;;;1.30;;
51612;SDS011;37694;51.748;14.326;2022-07-23T05:37:15;7.95;;;1.55;;
51612;SDS011;37694;51.748;14.326;2022-07-23T05:39:41;8.60;;;2.22;;
51612;SDS011;37694;51.748;14.326;2022-07-23T05:42:06;5.03;;;1.52;;
51612;SDS011;37694;51.748;14.326;2022-07-23T05:44:32;6.28;;;1.63;;
51612;SDS011;37694;51.748;14.326;2022-07-23T05:46:58;5.05;;;1.10;;
51612;SDS011;37694;51.748;14.326;2022-07-23T05:49:24;3.45;;;1.95;;
51612;SDS011;37694;51.748;14.326;2022-07-23T05:51:49;11.45;;;2.15;;
51612;SDS011;37694;51.748;14.326;2022-07-23T05:54:15;5.35;;;1.70;;
51612;SDS011;37694;51.748;14.326;2022-07-23T05:56:41;4.25;;;1.38;;
51612;SDS011;37694;51.748;14.326;2022-07-23T05:59:06;8.30;;;1.48;;
51612;SDS011;37694;51.748;14.326;2022-07-23T06:01:32;2.25;;;1.50;;
51612;SDS011;37694;51.748;14.326;2022-07-23T06:03:58;10.82;;;1.95;;
51612;SDS011;37694;51.748;14.326;2022-07-23T06:06:23;6.75;;;2.40;;
51612;SDS011;37694;51.748;14.326;2022-07-23T06:08:49;6.75;;;1.67;;
51612;SDS011;37694;51.748;14.326;2022-07-23T06:11:14;9.02;;;1.90;;
51612;SDS011;37694;51.748;14.326;2022-07-23T06:13:40;8.35;;;1.90;;
51612;SDS011;37694;51.748;14.326;2022-07-23T06:16:05;5.43;;;2.00;;
51612;SDS011;37694;51.748;14.326;2022-07-23T06:18:31;6.82;;;2.70;;
51612;SDS011;37694;51.748;14.326;2022-07-23T06:20:57;5.10;;;2.28;;
51612;SDS011;37694;51.748;14.326;2022-07-23T06:23:22;4.75;;;2.85;;
51612;SDS011;37694;51.748;14.326;2022-07-23T06:25:48;5.25;;;2.53;;
51612;SDS011;37694;51.748;14.326;2022-07-23T06:28:13;4.43;;;2.33;;
51612;SDS011;37694;51.748;14.326;2022-07-23T06:30:40;4.35;;;2.42;;
51612;SDS011;37694;51.748;14.326;2022-07-23T06:33:06;4.10;;;2.97;;
51612;SDS011;37694;51.748;14.326;2022-07-23T06:35:32;5.05;;;3.17;;
51612;SDS011;37694;51.748;14.326;2022-07-23T06:37:58;11.77;;;3.50;;
51612;SDS011;37694;51.748;14.326;2022-07-23T06:40:24;9.43;;;2.95;;
51612;SDS011;37694;51.748;14.326;2022-07-23T06:42:50;9.35;;;4.28;;
51612;SDS011;37694;51.748;14.326;2022-07-23T06:45:16;13.63;;;4.57;;
51612;SDS011;37694;51.748;14.326;2022-07-23T06:47:41;13.48;;;4.38;;
51612;SDS011;37694;51.748;14.326;2022-07-23T06:50:07;5.68;;;4.25;;
51612;SDS011;37694;51.748;14.326;2022-07-23T06:52:33;13.90;;;3.90;;
51612;SDS011;37694;51.748;14.326;2022-07-23T06:54:58;10.90;;;4.75;;
51612;SDS011;37694;51.748;14.326;2022-07-23T06:57:24;6.05;;;3.60;;
51612;SDS011;37694;51.748;14.326;2022-07-23T06:59:50;8.10;;;4.25;;
51612;SDS011;37694;51.748;14.326;2022-07-23T07:02:16;7.78;;;3.95;;
51612;SDS011;37694;51.748;14.326;2022-07-23T07:04:42;6.65;;;4.07;;
51612;SDS011;37694;51.748;14.326;2022-07-23T07:07:08;9.13;;;3.40;;
51612;SDS011;37694;51.748;14.326;2022-07-23T07:09:33;4.35;;;3.45;;
51612;SDS011;37694;51.748;14.326;2022-07-23T07:11:59;6.95;;;3.55;;
51612;SDS011;37694;51.748;14.326;2022-07-23T07:14:25;7.45;;;3.75;;
51612;SDS011;37694;51.748;14.326;2022-07-23T07:16:50;4.50;;;3.95;;
51612;SDS011;37694;51.748;14.326;2022-07-23T07:19:16;8.20;;;3.55;;
51612;SDS011;37694;51.748;14.326;2022-07-23T07:21:41;8.27;;;3.92;;
51612;SDS011;37694;51.748;14.326;2022-07-23T07:24:07;10.55;;;4.65;;
51612;SDS011;37694;51.748;14.326;2022-07-23T07:26:33;12.10;;;4.38;;
51612;SDS011;37694;51.748;14.326;2022-07-23T07:28:58;9.07;;;4.97;;
51612;SDS011;37694;51.748;14.326;2022-07-23T07:31:24;5.78;;;4.00;;
51612;SDS011;37694;51.748;14.326;2022-07-23T07:33:49;5.35;;;3.70;;
51612;SDS011;37694;51.748;14.326;2022-07-23T07:36:15;5.68;;;4.22;;
51612;SDS011;37694;51.748;14.326;2022-07-23T07:38:41;6.75;;;3.80;;
51612;SDS011;37694;51.748;14.326;2022-07-23T07:41:06;10.10;;;5.35;;
51612;SDS011;37694;51.748;14.326;2022-07-23T07:43:32;17.27;;;6.20;;
51612;SDS011;37694;51.748;14.326;2022-07-23T07:45:58;7.07;;;4.30;;
51612;SDS011;37694;51.748;14.326;2022-07-23T07:48:24;13.18;;;4.47;;
51612;SDS011;37694;51.748;14.326;2022-07-23T07:50:49;10.82;;;4.47;;
51612;SDS011;37694;51.748;14.326;2022-07-23T07:53:15;14.55;;;4.15;;
51612;SDS011;37694;51.748;14.326;2022-07-23T07:55:41;13.13;;;4.32;;
51612;SDS011;37694;51.748;14.326;2022-07-23T07:58:06;4.47;;;3.85;;
51612;SDS011;37694;51.748;14.326;2022-07-23T08:00:32;8.23;;;4.05;;
51612;SDS011;37694;51.748;14.326;2022-07-23T08:02:58;9.85;;;3.85;;
51612;SDS011;37694;51.748;14.326;2022-07-23T08:05:26;11.07;;;4.38;;
51612;SDS011;37694;51.748;14.326;2022-07-23T08:07:57;10.65;;;4.50;;
51612;SDS011;37694;51.748;14.326;2022-07-23T08:10:24;8.45;;;3.95;;
51612;SDS011;37694;51.748;14.326;2022-07-23T08:12:52;8.43;;;3.95;;
51612;SDS011;37694;51.748;14.326;2022-07-23T08:15:19;12.55;;;4.82;;
51612;SDS011;37694;51.748;14.326;2022-07-23T08:17:47;15.63;;;3.75;;
51612;SDS011;37694;51.748;14.326;2022-07-23T08:20:14;10.02;;;3.63;;
51612;SDS011;37694;51.748;14.326;2022-07-23T08:22:45;13.30;;;4.53;;
51612;SDS011;37694;51.748;14.326;2022-07-23T08:25:12;16.58;;;3.75;;
51612;SDS011;37694;51.748;14.326;2022-07-23T08:27:38;17.17;;;4.63;;
51612;SDS011;37694;51.748;14.326;2022-07-23T08:30:04;14.52;;;4.05;;
51612;SDS011;37694;51.748;14.326;2022-07-23T08:32:30;19.42;;;4.05;;
51612;SDS011;37694;51.748;14.326;2022-07-23T08:34:56;13.13;;;4.22;;
51612;SDS011;37694;51.748;14.326;2022-07-23T08:37:21;9.80;;;4.13;;
51612;SDS011;37694;51.748;14.326;2022-07-23T08:39:47;12.95;;;4.43;;
51612;SDS011;37694;51.748;14.326;2022-07-23T08:42:15;14.80;;;3.70;;
51612;SDS011;37694;51.748;14.326;2022-07-23T08:44:43;11.02;;;3.92;;
51612;SDS011;37694;51.748;14.326;2022-07-23T08:47:11;12.15;;;3.70;;
51612;SDS011;37694;51.748;14.326;2022-07-23T08:49:38;9.07;;;3.78;;
51612;SDS011;37694;51.748;14.326;2022-07-23T08:52:04;14.27;;;3.75;;
51612;SDS011;37694;51.748;14.326;2022-07-23T08:54:31;11.27;;;4.03;;
51612;SDS011;37694;51.748;14.326;2022-07-23T08:56:56;17.38;;;3.88;;
51612;SDS011;37694;51.748;14.326;2022-07-23T08:59:22;13.18;;;4.68;;
51612;SDS011;37694;51.748;14.326;2022-07-23T09:01:48;10.13;;;4.30;;
51612;SDS011;37694;51.748;14.326;2022-07-23T09:04:13;12.45;;;4.15;;
51612;SDS011;37694;51.748;14.326;2022-07-23T09:06:39;10.32;;;3.92;;
51612;SDS011;37694;51.748;14.326;2022-07-23T09:09:17;5.13;;;3.80;;
51612;SDS011;37694;51.748;14.326;2022-07-23T09:11:47;11.32;;;4.43;;
51612;SDS011;37694;51.748;14.326;2022-07-23T09:14:13;15.10;;;4.13;;
51612;SDS011;37694;51.748;14.326;2022-07-23T09:16:39;19.73;;;4.82;;
51612;SDS011;37694;51.748;14.326;2022-07-23T09:19:05;14.32;;;3.92;;
51612;SDS011;37694;51.748;14.326;2022-07-23T09:21:38;10.63;;;4.13;;
51612;SDS011;37694;51.748;14.326;2022-07-23T09:24:11;19.38;;;4.82;;
51612;SDS011;37694;51.748;14.326;2022-07-23T09:26:41;14.18;;;4.38;;
51612;SDS011;37694;51.748;14.326;2022-07-23T09:31:50;5.28;;;3.58;;
51612;SDS011;37694;51.748;14.326;2022-07-23T09:34:27;7.53;;;3.22;;
51612;SDS011;37694;51.748;14.326;2022-07-23T09:36:56;5.75;;;3.70;;
51612;SDS011;37694;51.748;14.326;2022-07-23T09:39:29;8.77;;;3.70;;
51612;SDS011;37694;51.748;14.326;2022-07-23T09:41:57;13.43;;;3.03;;
51612;SDS011;37694;51.748;14.326;2022-07-23T09:44:40;13.73;;;3.70;;
51612;SDS011;37694;51.748;14.326;2022-07-23T09:47:07;11.68;;;3.78;;
51612;SDS011;37694;51.748;14.326;2022-07-23T09:49:32;10.30;;;3.15;;
51612;SDS011;37694;51.748;14.326;2022-07-23T09:51:59;11.32;;;3.95;;
51612;SDS011;37694;51.748;14.326;2022-07-23T09:57:04;5.90;;;3.20;;
51612;SDS011;37694;51.748;14.326;2022-07-23T09:59:34;8.35;;;4.00;;
51612;SDS011;37694;51.748;14.326;2022-07-23T10:02:01;9.32;;;2.95;;
51612;SDS011;37694;51.748;14.326;2022-07-23T10:04:28;10.95;;;3.47;;
51612;SDS011;37694;51.748;14.326;2022-07-23T10:06:55;10.25;;;2.95;;
51612;SDS011;37694;51.748;14.326;2022-07-23T10:09:35;6.40;;;2.63;;
51612;SDS011;37694;51.748;14.326;2022-07-23T10:12:06;6.05;;;3.25;;
51612;SDS011;37694;51.748;14.326;2022-07-23T10:14:43;6.53;;;3.40;;
51612;SDS011;37694;51.748;14.326;2022-07-23T10:17:09;4.47;;;3.25;;
51612;SDS011;37694;51.748;14.326;2022-07-23T10:19:35;8.55;;;3.33;;
51612;SDS011;37694;51.748;14.326;2022-07-23T10:22:03;12.50;;;3.42;;
51612;SDS011;37694;51.748;14.326;2022-07-23T10:30:00;11.95;;;3.47;;
51612;SDS011;37694;51.748;14.326;2022-07-23T10:37:47;15.30;;;5.47;;
51612;SDS011;37694;51.748;14.326;2022-07-23T10:42:43;8.43;;;3.30;;
51612;SDS011;37694;51.748;14.326;2022-07-23T10:48:14;5.95;;;2.90;;
51612;SDS011;37694;51.748;14.326;2022-07-23T10:51:05;10.32;;;3.83;;
51612;SDS011;37694;51.748;14.326;2022-07-23T10:53:54;10.35;;;3.35;;
51612;SDS011;37694;51.748;14.326;2022-07-23T11:02:33;6.35;;;2.40;;
51612;SDS011;37694;51.748;14.326;2022-07-23T11:05:07;5.82;;;2.60;;
51612;SDS011;37694;51.748;14.326;2022-07-23T11:07:36;6.72;;;2.72;;
51612;SDS011;37694;51.748;14.326;2022-07-23T11:10:35;4.00;;;2.75;;
51612;SDS011;37694;51.748;14.326;2022-07-23T11:37:03;8.52;;;3.75;;
51612;SDS011;37694;51.748;14.326;2022-07-23T11:39:30;16.85;;;3.20;;
51612;SDS011;37694;51.748;14.326;2022-07-23T11:41:57;10.07;;;2.90;;
51612;SDS011;37694;51.748;14.326;2022-07-23T11:46:58;8.15;;;2.92;;
51612;SDS011;37694;51.748;14.326;2022-07-23T11:49:26;30.85;;;3.78;;
51612;SDS011;37694;51.748;14.326;2022-07-23T11:52:05;15.57;;;3.25;;
51612;SDS011;37694;51.748;14.326;2022-07-23T11:54:48;11.32;;;3.15;;
51612;SDS011;37694;51.748;14.326;2022-07-23T11:57:29;16.95;;;3.40;;
51612;SDS011;37694;51.748;14.326;2022-07-23T12:02:36;17.20;;;4.18;;
51612;SDS011;37694;51.748;14.326;2022-07-23T12:05:05;10.68;;;3.13;;
51612;SDS011;37694;51.748;14.326;2022-07-23T12:07:35;12.48;;;4.30;;
51612;SDS011;37694;51.748;14.326;2022-07-23T12:12:49;17.13;;;4.13;;
51612;SDS011;37694;51.748;14.326;2022-07-23T12:15:27;24.73;;;4.22;;
51612;SDS011;37694;51.748;14.326;2022-07-23T12:17:56;16.00;;;4.05;;
51612;SDS011;37694;51.748;14.326;2022-07-23T12:20:24;13.63;;;3.85;;
51612;SDS011;37694;51.748;14.326;2022-07-23T12:23:01;7.85;;;3.65;;
51612;SDS011;37694;51.748;14.326;2022-07-23T12:25:29;11.73;;;4.28;;
51612;SDS011;37694;51.748;14.326;2022-07-23T12:30:27;7.07;;;4.13;;
51612;SDS011;37694;51.748;14.326;2022-07-23T12:32:58;9.98;;;4.43;;
51612;SDS011;37694;51.748;14.326;2022-07-23T12:35:30;13.13;;;4.68;;
51612;SDS011;37694;51.748;14.326;2022-07-23T12:38:01;14.60;;;4.43;;
51612;SDS011;37694;51.748;14.326;2022-07-23T12:40:32;14.63;;;4.47;;
51612;SDS011;37694;51.748;14.326;2022-07-23T12:43:05;32.08;;;5.30;;
51612;SDS011;37694;51.748;14.326;2022-07-23T12:45:43;25.25;;;5.18;;
51612;SDS011;37694;51.748;14.326;2022-07-23T12:48:26;51.20;;;8.80;;
51612;SDS011;37694;51.748;14.326;2022-07-23T12:50:59;75.22;;;14.65;;
51612;SDS011;37694;51.748;14.326;2022-07-23T12:56:12;54.63;;;10.45;;
51612;SDS011;37694;51.748;14.326;2022-07-23T12:58:40;44.78;;;9.10;;
51612;SDS011;37694;51.748;14.326;2022-07-23T13:01:08;47.88;;;9.38;;
51612;SDS011;37694;51.748;14.326;2022-07-23T13:03:36;48.63;;;9.15;;
51612;SDS011;37694;51.748;14.326;2022-07-23T13:06:04;52.70;;;8.45;;
51612;SDS011;37694;51.748;14.326;2022-07-23T13:08:32;54.72;;;9.95;;
51612;SDS011;37694;51.748;14.326;2022-07-23T13:10:59;39.58;;;9.40;;
51612;SDS011;37694;51.748;14.326;2022-07-23T13:13:26;43.00;;;8.52;;
51612;SDS011;37694;51.748;14.326;2022-07-23T13:15:53;46.05;;;9.50;;
51612;SDS011;37694;51.748;14.326;2022-07-23T13:18:20;45.35;;;8.82;;
51612;SDS011;37694;51.748;14.326;2022-07-23T13:20:47;34.97;;;8.57;;
51612;SDS011;37694;51.748;14.326;2022-07-23T13:23:13;36.53;;;8.95;;
51612;SDS011;37694;51.748;14.326;2022-07-23T13:25:39;30.40;;;8.02;;
51612;SDS011;37694;51.748;14.326;2022-07-23T13:28:05;38.35;;;8.70;;
51612;SDS011;37694;51.748;14.326;2022-07-23T13:30:31;37.88;;;7.40;;
51612;SDS011;37694;51.748;14.326;2022-07-23T13:32:57;33.28;;;6.80;;
51612;SDS011;37694;51.748;14.326;2022-07-23T13:35:23;25.17;;;7.80;;
51612;SDS011;37694;51.748;14.326;2022-07-23T13:37:49;34.20;;;7.40;;
51612;SDS011;37694;51.748;14.326;2022-07-23T13:40:15;29.75;;;8.13;;
51612;SDS011;37694;51.748;14.326;2022-07-23T13:42:40;29.58;;;8.05;;
51612;SDS011;37694;51.748;14.326;2022-07-23T13:45:06;24.15;;;7.18;;
51612;SDS011;37694;51.748;14.326;2022-07-23T13:47:32;23.73;;;6.28;;
51612;SDS011;37694;51.748;14.326;2022-07-23T13:49:57;19.73;;;6.70;;
51612;SDS011;37694;51.748;14.326;2022-07-23T13:52:23;18.42;;;6.03;;
51612;SDS011;37694;51.748;14.326;2022-07-23T13:54:49;34.78;;;7.57;;
51612;SDS011;37694;51.748;14.326;2022-07-23T13:57:15;22.08;;;6.65;;
51612;SDS011;37694;51.748;14.326;2022-07-23T13:59:41;20.98;;;6.80;;
51612;SDS011;37694;51.748;14.326;2022-07-23T14:02:07;29.80;;;7.35;;
51612;SDS011;37694;51.748;14.326;2022-07-23T14:04:33;30.02;;;6.68;;
51612;SDS011;37694;51.748;14.326;2022-07-23T14:06:59;17.23;;;5.93;;
51612;SDS011;37694;51.748;14.326;2022-07-23T14:09:25;28.23;;;8.23;;
51612;SDS011;37694;51.748;14.326;2022-07-23T14:11:50;17.30;;;6.93;;
51612;SDS011;37694;51.748;14.326;2022-07-23T14:14:17;14.80;;;5.85;;
51612;SDS011;37694;51.748;14.326;2022-07-23T14:16:43;16.00;;;5.47;;
51612;SDS011;37694;51.748;14.326;2022-07-23T14:19:09;15.13;;;5.88;;
51612;SDS011;37694;51.748;14.326;2022-07-23T14:21:35;15.35;;;5.53;;
51612;SDS011;37694;51.748;14.326;2022-07-23T14:24:00;18.70;;;5.68;;
51612;SDS011;37694;51.748;14.326;2022-07-23T14:26:26;16.60;;;5.85;;
51612;SDS011;37694;51.748;14.326;2022-07-23T14:28:52;18.42;;;5.63;;
51612;SDS011;37694;51.748;14.326;2022-07-23T14:31:18;14.88;;;5.35;;
51612;SDS011;37694;51.748;14.326;2022-07-23T14:33:43;17.02;;;5.50;;
51612;SDS011;37694;51.748;14.326;2022-07-23T14:36:09;13.52;;;4.90;;
51612;SDS011;37694;51.748;14.326;2022-07-23T14:38:35;15.35;;;5.93;;
51612;SDS011;37694;51.748;14.326;2022-07-23T14:41:00;15.88;;;6.38;;
51612;SDS011;37694;51.748;14.326;2022-07-23T14:43:26;9.65;;;4.43;;
51612;SDS011;37694;51.748;14.326;2022-07-23T14:45:51;14.68;;;4.85;;
51612;SDS011;37694;51.748;14.326;2022-07-23T14:48:17;17.65;;;5.43;;
51612;SDS011;37694;51.748;14.326;2022-07-23T14:50:43;9.68;;;5.07;;
51612;SDS011;37694;51.748;14.326;2022-07-23T14:53:08;10.55;;;4.43;;
51612;SDS011;37694;51.748;14.326;2022-07-23T14:55:34;12.30;;;4.95;;
51612;SDS011;37694;51.748;14.326;2022-07-23T14:58:00;17.58;;;5.85;;
51612;SDS011;37694;51.748;14.326;2022-07-23T15:00:26;14.95;;;5.15;;
51612;SDS011;37694;51.748;14.326;2022-07-23T15:02:52;9.57;;;4.95;;
51612;SDS011;37694;51.748;14.326;2022-07-23T15:05:18;10.82;;;4.85;;
51612;SDS011;37694;51.748;14.326;2022-07-23T15:07:44;8.55;;;4.40;;
51612;SDS011;37694;51.748;14.326;2022-07-23T15:10:10;11.18;;;4.47;;
51612;SDS011;37694;51.748;14.326;2022-07-23T15:12:36;7.28;;;3.90;;
51612;SDS011;37694;51.748;14.326;2022-07-23T15:15:02;9.00;;;4.47;;
51612;SDS011;37694;51.748;14.326;2022-07-23T15:17:28;7.68;;;3.67;;
51612;SDS011;37694;51.748;14.326;2022-07-23T15:19:53;13.65;;;4.63;;
51612;SDS011;37694;51.748;14.326;2022-07-23T15:22:19;9.10;;;4.10;;
51612;SDS011;37694;51.748;14.326;2022-07-23T15:24:45;10.10;;;4.35;;
51612;SDS011;37694;51.748;14.326;2022-07-23T15:27:10;9.18;;;4.03;;
51612;SDS011;37694;51.748;14.326;2022-07-23T15:29:36;12.32;;;4.35;;
51612;SDS011;37694;51.748;14.326;2022-07-23T15:32:02;7.13;;;3.72;;